Burgum, Netherlands
Current Conditions -  °F | °C
As of 7:25 PM on Saturday 25 Oct 2014 (Local Time) from EHLW Reporting Station
Overcast Overcast  
Wind Chill: 52°   Ceiling: 3000
Heat Index: 52°   Visibility: 6mi
Dew Point: 48°   Wind: 6mph
Humidity: 88%   Direction: 210°SSW
Pressure: 30.06"   Gusts: NA
Location:  53.19°N, 5.99°E
Report Text: EHLW 251725Z AUTO 21005KT 9999 OVC030 11/09 Q1018 BLU
Loading
Personal Weather Stations






























Interactive Weather Map
Tropical Storm Tracking
New forecast layout! Learn more

10-Day Weather Forecast

Advertisements
Track Severe Weather on mobile